International Virtual Aviation Organisation

Eastern Europe and Northern Asia MCD

 

Карточка аэропорта UHMM

Внимание!
Информация на этой странице в стадии наполнения.
Если вы не увидели какой-то информации, или заметили неточность - пожалуйста сообщите нам!
Спасибо!
Команда RU-STAFF
Название аэропортаСокол
Название аэропорта (англ.)Sokol
Превышение574 ft. (175 m.)
Координаты59°54.666', 150°43.26'
Высота перехода2150m
Эшелон переходаQFE>=733mm:FL090; QFE<733:FL100
Коды ответчика6540-6577
Зона ОрВДМагадан РПИ (UHMM)
Данные METARUHMM 132000Z 09001MPS 9999 FEW040 M23/M26 Q1015 R10/81//65 RMK QFE746 R28/08002MPS
Проноз погоды (TAF)UHMM 131641Z 1318/1424 09003G08MPS 9999 SCT030 TEMPO 1320/1405 09008G13MPS BKN015CB FM140500 10006G12MPS 3100 -SHSN VV011 TEMPO 1405/1424 10011G20MPS 0500 +SHSN BLSN VV003
NOTAMshow/hide NOTAM
AWOS   TABLE

Информация о ВПП


Диспетчерские позиции

Позывной Наименование органа УВД Частота
UHMM_APPМагадан-Подход119.3
UHMM_TWRМагадан-Вышка120.8



Спутниковое изображение